createdAt,value
2017-12-25T00:00:46.534Z,4.50
2017-12-25T00:03:14.139Z,4.60
2017-12-25T00:05:41.715Z,4.60
2017-12-25T00:08:09.318Z,4.60
2017-12-25T00:10:36.952Z,4.60
2017-12-25T00:13:04.556Z,4.60
2017-12-25T00:15:32.141Z,4.60
2017-12-25T00:17:59.741Z,4.60
2017-12-25T00:20:27.320Z,4.60
2017-12-25T00:22:54.925Z,4.50
2017-12-25T00:25:23.276Z,4.60
2017-12-25T00:27:50.839Z,4.50
2017-12-25T00:30:18.431Z,4.60
2017-12-25T00:32:46.027Z,4.60
2017-12-25T00:35:13.649Z,4.60
2017-12-25T00:37:42.004Z,4.50
2017-12-25T00:40:09.595Z,4.50
2017-12-25T00:42:37.175Z,4.50
2017-12-25T00:45:04.760Z,4.50
2017-12-25T00:47:32.404Z,4.50
2017-12-25T00:50:00.010Z,4.50
2017-12-25T00:52:28.364Z,4.60
2017-12-25T00:54:55.939Z,4.60
2017-12-25T00:57:23.526Z,4.60
2017-12-25T00:59:51.908Z,4.60
2017-12-25T01:02:20.269Z,4.60
2017-12-25T01:04:47.910Z,4.60
2017-12-25T01:07:15.541Z,4.60
2017-12-25T01:09:43.121Z,4.60
2017-12-25T01:12:10.739Z,4.60
2017-12-25T01:14:39.076Z,4.60
2017-12-25T01:17:06.667Z,4.50
2017-12-25T01:19:35.036Z,4.50
2017-12-25T01:22:02.617Z,4.50
2017-12-25T01:24:30.984Z,4.50
2017-12-25T01:26:59.340Z,4.60
2017-12-25T01:29:26.922Z,4.50
2017-12-25T01:31:55.292Z,4.60
2017-12-25T01:34:22.884Z,4.50
2017-12-25T01:36:50.509Z,4.50
2017-12-25T01:39:18.104Z,4.50
2017-12-25T01:41:45.680Z,4.50
2017-12-25T01:44:13.256Z,4.60
2017-12-25T01:46:40.895Z,4.50
2017-12-25T01:49:08.496Z,4.60
2017-12-25T01:51:36.876Z,4.50
2017-12-25T01:54:04.489Z,4.50
2017-12-25T01:56:38.914Z,4.50
2017-12-25T01:59:08.971Z,4.50
2017-12-25T02:01:42.481Z,4.50
2017-12-25T02:04:16.032Z,4.50
2017-12-25T02:06:55.389Z,4.50
2017-12-25T02:09:23.018Z,4.50
2017-12-25T02:11:51.372Z,4.50
2017-12-25T02:14:18.966Z,4.50
2017-12-25T02:16:46.540Z,4.50
2017-12-25T02:19:14.134Z,4.50
2017-12-25T02:21:41.757Z,4.50
2017-12-25T02:24:09.359Z,4.50
2017-12-25T02:26:36.932Z,4.50
2017-12-25T02:29:04.505Z,4.50
2017-12-25T02:31:32.080Z,4.40
2017-12-25T02:34:00.452Z,4.40
2017-12-25T02:36:28.799Z,4.40
2017-12-25T02:38:56.375Z,4.40
2017-12-25T02:41:23.949Z,4.40
2017-12-25T02:43:52.296Z,4.40
2017-12-25T02:46:19.929Z,4.30
2017-12-25T02:48:47.519Z,4.40
2017-12-25T02:51:15.115Z,4.40
2017-12-25T02:53:42.730Z,4.50
2017-12-25T02:56:10.334Z,4.50
2017-12-25T02:58:38.721Z,4.50
2017-12-25T03:01:07.078Z,4.50
2017-12-25T03:03:34.674Z,4.50
2017-12-25T03:06:02.265Z,4.60
2017-12-25T03:08:29.836Z,4.50
2017-12-25T03:10:57.432Z,4.50
2017-12-25T03:13:25.018Z,4.50
2017-12-25T03:15:52.591Z,4.50
2017-12-25T03:18:20.169Z,4.50
2017-12-25T03:20:47.762Z,4.50
2017-12-25T03:23:15.359Z,4.50
2017-12-25T03:25:42.938Z,4.50
2017-12-25T03:28:10.520Z,4.50
2017-12-25T03:30:38.116Z,4.50
2017-12-25T03:33:05.710Z,4.50
2017-12-25T03:35:33.330Z,4.30
2017-12-25T03:38:00.904Z,4.20
2017-12-25T03:40:29.256Z,4.20
2017-12-25T03:42:56.850Z,4.10
2017-12-25T03:45:25.196Z,4.10
2017-12-25T03:47:52.837Z,4.10
2017-12-25T03:50:20.423Z,4.10
2017-12-25T03:52:48.018Z,4.10
2017-12-25T03:55:16.362Z,4.00
2017-12-25T03:57:43.953Z,4.00
2017-12-25T04:00:12.299Z,4.00
2017-12-25T04:02:39.905Z,4.00
2017-12-25T04:05:07.506Z,4.00
2017-12-25T04:07:35.083Z,4.00
2017-12-25T04:10:02.674Z,4.00
2017-12-25T04:12:31.025Z,3.90
2017-12-25T04:14:58.600Z,3.90
2017-12-25T04:17:26.201Z,3.90
2017-12-25T04:19:53.883Z,3.90
2017-12-25T04:22:21.491Z,4.00
2017-12-25T04:24:49.083Z,4.00
2017-12-25T04:27:16.661Z,3.90
2017-12-25T04:29:44.270Z,3.80
2017-12-25T04:32:11.845Z,3.80
2017-12-25T04:34:40.188Z,3.70
2017-12-25T04:37:07.764Z,3.70
2017-12-25T04:39:35.353Z,3.60
2017-12-25T04:42:03.710Z,3.60
2017-12-25T04:44:31.302Z,3.50
2017-12-25T04:46:58.890Z,3.60
2017-12-25T04:49:26.476Z,3.60
2017-12-25T04:51:54.075Z,3.60
2017-12-25T04:54:22.430Z,3.60
2017-12-25T04:56:50.055Z,3.60
2017-12-25T04:59:17.650Z,3.70
2017-12-25T05:01:45.234Z,3.70
2017-12-25T05:04:12.826Z,3.70
2017-12-25T05:06:40.408Z,3.60
2017-12-25T05:09:08.058Z,3.60
2017-12-25T05:11:35.636Z,3.70
2017-12-25T05:14:03.226Z,3.70
2017-12-25T05:16:31.637Z,3.80
2017-12-25T05:18:59.220Z,3.80
2017-12-25T05:21:26.815Z,3.80
2017-12-25T05:23:54.425Z,3.80
2017-12-25T05:26:22.019Z,3.90
2017-12-25T05:28:49.612Z,3.90
2017-12-25T05:31:17.989Z,3.90
2017-12-25T05:33:45.586Z,3.90
2017-12-25T05:36:13.189Z,3.90
2017-12-25T05:38:40.804Z,3.90
2017-12-25T05:41:08.395Z,4.00
2017-12-25T05:43:35.978Z,3.90
2017-12-25T05:46:03.592Z,3.90
2017-12-25T05:48:31.178Z,3.90
2017-12-25T05:50:58.747Z,3.80
2017-12-25T05:53:26.352Z,3.90
2017-12-25T05:55:54.715Z,3.90
2017-12-25T05:58:22.782Z,3.80
2017-12-25T06:00:53.732Z,3.80
2017-12-25T06:03:22.097Z,3.90
2017-12-25T06:05:49.696Z,3.80
2017-12-25T06:08:17.291Z,3.80
2017-12-25T06:10:44.879Z,3.80
2017-12-25T06:13:12.477Z,3.70
2017-12-25T06:15:42.011Z,3.70
2017-12-25T06:18:09.598Z,3.70
2017-12-25T06:20:37.171Z,3.70
2017-12-25T06:23:04.750Z,3.70
2017-12-25T06:25:33.095Z,3.70
2017-12-25T06:28:00.688Z,3.70
2017-12-25T06:30:29.036Z,3.60
2017-12-25T06:32:56.616Z,3.60
2017-12-25T06:35:24.197Z,3.60
2017-12-25T06:37:52.536Z,3.70
2017-12-25T06:40:20.104Z,3.70
2017-12-25T06:42:47.690Z,3.70
2017-12-25T06:45:16.048Z,3.60
2017-12-25T06:47:43.654Z,3.60
2017-12-25T06:50:11.236Z,3.60
2017-12-25T06:52:38.824Z,3.60
2017-12-25T06:55:06.408Z,3.60
2017-12-25T06:57:35.385Z,3.60
2017-12-25T07:00:02.992Z,3.60
2017-12-25T07:02:30.595Z,3.60
2017-12-25T07:04:58.188Z,3.60
2017-12-25T07:07:26.542Z,3.50
2017-12-25T07:09:54.133Z,3.40
2017-12-25T07:12:22.476Z,3.30
2017-12-25T07:14:50.095Z,3.30
2017-12-25T07:17:17.736Z,3.40
2017-12-25T07:19:52.176Z,3.30
2017-12-25T07:22:19.763Z,3.30
2017-12-25T07:24:57.477Z,3.30
2017-12-25T07:27:25.049Z,3.30
2017-12-25T07:29:52.632Z,3.40
2017-12-25T07:32:20.979Z,3.40
2017-12-25T07:34:48.547Z,3.40
2017-12-25T07:37:19.195Z,3.40
2017-12-25T07:39:46.822Z,3.20
2017-12-25T07:42:14.427Z,3.20
2017-12-25T07:44:42.769Z,3.30
2017-12-25T07:47:10.386Z,3.30
2017-12-25T07:49:37.996Z,3.30
2017-12-25T07:52:05.591Z,3.30
2017-12-25T07:54:33.965Z,3.30
2017-12-25T07:57:02.334Z,3.20
2017-12-25T07:59:29.916Z,3.20
2017-12-25T08:01:58.301Z,3.20
2017-12-25T08:04:25.899Z,3.20
2017-12-25T08:07:06.538Z,3.20
2017-12-25T08:09:34.113Z,3.20
2017-12-25T08:12:01.702Z,3.30
2017-12-25T08:14:29.306Z,3.30
2017-12-25T08:16:57.671Z,3.50
2017-12-25T08:19:26.060Z,3.50
2017-12-25T08:21:54.417Z,3.50
2017-12-25T08:24:22.009Z,3.50
2017-12-25T08:26:49.608Z,3.50
2017-12-25T08:29:17.200Z,3.50
2017-12-25T08:31:44.823Z,3.60
2017-12-25T08:34:12.426Z,3.60
2017-12-25T08:36:40.799Z,3.50
2017-12-25T08:39:08.388Z,3.50
2017-12-25T08:41:36.750Z,3.60
2017-12-25T08:44:05.130Z,3.60
2017-12-25T08:46:32.848Z,3.60
2017-12-25T08:49:00.441Z,3.60
2017-12-25T08:51:28.049Z,3.60
2017-12-25T08:53:55.669Z,3.60
2017-12-25T08:56:23.298Z,3.60
2017-12-25T08:58:50.899Z,3.70
2017-12-25T09:01:18.505Z,3.70
2017-12-25T09:03:46.130Z,3.70
2017-12-25T09:06:14.500Z,3.80
2017-12-25T09:08:42.116Z,3.80
2017-12-25T09:11:09.721Z,3.80
2017-12-25T09:13:37.318Z,3.90
2017-12-25T09:16:04.947Z,3.70
2017-12-25T09:18:33.293Z,3.80
2017-12-25T09:21:00.914Z,3.80
2017-12-25T09:23:28.501Z,3.80
2017-12-25T09:25:56.076Z,3.80
2017-12-25T09:28:23.675Z,3.90
2017-12-25T09:30:52.034Z,3.90
2017-12-25T09:33:19.670Z,3.90
2017-12-25T09:35:47.260Z,3.90
2017-12-25T09:38:14.850Z,3.90
2017-12-25T09:40:43.212Z,3.80
2017-12-25T09:43:11.774Z,3.80
2017-12-25T09:45:39.388Z,3.80
2017-12-25T09:48:06.969Z,3.90
2017-12-25T09:50:34.549Z,4.00
2017-12-25T09:53:02.149Z,4.10
2017-12-25T09:55:30.487Z,4.10
2017-12-25T09:57:58.122Z,4.10
2017-12-25T10:00:25.713Z,4.10
2017-12-25T10:02:53.321Z,4.00
2017-12-25T10:05:20.918Z,3.80
2017-12-25T10:07:48.488Z,3.80
2017-12-25T10:10:16.907Z,4.00
2017-12-25T10:12:45.262Z,4.00
2017-12-25T10:15:12.864Z,4.10
2017-12-25T10:17:41.255Z,4.40
2017-12-25T10:20:08.844Z,4.40
2017-12-25T10:22:36.462Z,4.30
2017-12-25T10:25:04.819Z,4.20
2017-12-25T10:27:32.396Z,4.10
2017-12-25T10:30:00.755Z,4.10
2017-12-25T10:32:28.328Z,4.10
2017-12-25T10:34:56.710Z,4.40
2017-12-25T10:37:25.056Z,4.30
2017-12-25T10:39:52.646Z,4.30
2017-12-25T10:42:21.001Z,4.20
2017-12-25T10:44:48.586Z,4.10
2017-12-25T10:47:16.950Z,4.10
2017-12-25T10:49:44.536Z,4.10
2017-12-25T10:52:12.898Z,4.10
2017-12-25T10:54:40.537Z,4.10
2017-12-25T10:57:08.128Z,4.10
2017-12-25T10:59:36.532Z,4.20
2017-12-25T11:02:04.130Z,4.20
2017-12-25T11:04:32.477Z,4.20
2017-12-25T11:07:19.585Z,4.20
2017-12-25T11:09:47.170Z,4.20
2017-12-25T11:12:14.810Z,4.30
2017-12-25T11:14:42.400Z,4.40
2017-12-25T11:17:09.993Z,4.40
2017-12-25T11:19:37.611Z,4.50
2017-12-25T11:22:05.201Z,4.40
2017-12-25T11:24:32.816Z,4.40
2017-12-25T11:27:00.411Z,4.50
2017-12-25T11:29:27.994Z,4.50
2017-12-25T11:31:55.560Z,4.50
2017-12-25T11:34:23.148Z,4.50
2017-12-25T11:36:51.535Z,4.60
2017-12-25T11:39:19.895Z,4.80
2017-12-25T11:41:48.269Z,4.90
2017-12-25T11:44:15.844Z,4.90
2017-12-25T11:46:44.206Z,5.00
2017-12-25T11:49:11.813Z,5.00
2017-12-25T11:51:39.409Z,5.00
2017-12-25T11:54:07.017Z,5.00
2017-12-25T11:56:34.617Z,5.00
2017-12-25T11:59:02.212Z,5.00
2017-12-25T12:01:29.837Z,5.00
2017-12-25T12:03:57.435Z,5.10
2017-12-25T12:06:25.023Z,5.20
2017-12-25T12:08:52.617Z,5.30
2017-12-25T12:11:20.188Z,5.40
2017-12-25T12:13:47.804Z,5.40
2017-12-25T12:16:16.155Z,5.50
2017-12-25T12:18:43.738Z,5.50
2017-12-25T12:21:12.113Z,5.50
2017-12-25T12:23:40.457Z,5.60
2017-12-25T12:26:08.047Z,5.50
2017-12-25T12:28:36.385Z,5.60
2017-12-25T12:31:03.991Z,5.60
2017-12-25T12:33:32.368Z,5.60
2017-12-25T12:36:00.726Z,5.60
2017-12-25T12:38:28.314Z,5.60
2017-12-25T12:40:56.663Z,5.50
2017-12-25T12:43:24.244Z,5.50
2017-12-25T12:45:52.638Z,5.50
2017-12-25T12:48:20.991Z,5.50
2017-12-25T12:50:48.580Z,5.50
2017-12-25T12:53:16.922Z,5.50
2017-12-25T12:55:44.497Z,5.40
2017-12-25T12:58:12.122Z,5.50
2017-12-25T13:00:39.746Z,5.50
2017-12-25T13:03:07.332Z,5.40
2017-12-25T13:05:34.943Z,5.40
2017-12-25T13:08:03.298Z,5.50
2017-12-25T13:10:30.900Z,5.40
2017-12-25T13:12:59.240Z,5.40
2017-12-25T13:15:26.837Z,5.40
2017-12-25T13:17:54.435Z,5.40
2017-12-25T13:20:22.016Z,5.50
2017-12-25T13:22:49.620Z,5.40
2017-12-25T13:25:17.960Z,5.30
2017-12-25T13:27:45.569Z,5.30
2017-12-25T13:30:13.156Z,5.30
2017-12-25T13:32:40.737Z,5.30
2017-12-25T13:35:08.369Z,5.30
2017-12-25T13:37:35.938Z,5.30
2017-12-25T13:40:03.532Z,5.20
2017-12-25T13:42:31.130Z,5.20
2017-12-25T13:44:58.719Z,5.20
2017-12-25T13:47:26.326Z,5.30
2017-12-25T13:49:53.920Z,5.20
2017-12-25T13:52:21.492Z,5.30
2017-12-25T13:54:49.094Z,5.30
2017-12-25T13:57:16.750Z,5.30
2017-12-25T13:59:48.032Z,5.30
2017-12-25T14:02:16.385Z,5.30
2017-12-25T14:04:43.978Z,5.20
2017-12-25T14:07:12.326Z,5.20
2017-12-25T14:09:39.912Z,5.20
2017-12-25T14:12:08.281Z,5.20
2017-12-25T14:14:35.863Z,5.20
2017-12-25T14:17:03.460Z,5.10
2017-12-25T14:19:31.065Z,5.10
2017-12-25T14:22:00.245Z,5.10
2017-12-25T14:24:27.857Z,5.10
2017-12-25T14:26:55.465Z,5.10
2017-12-25T14:29:23.063Z,5.00
2017-12-25T14:31:50.648Z,5.00
2017-12-25T14:34:18.220Z,4.90
2017-12-25T14:36:45.838Z,4.80
2017-12-25T14:39:14.179Z,4.80
2017-12-25T14:41:41.764Z,4.80
2017-12-25T14:44:10.128Z,4.70
2017-12-25T14:46:37.714Z,4.60
2017-12-25T14:49:06.095Z,4.50
2017-12-25T14:51:34.458Z,4.40
2017-12-25T14:54:02.042Z,4.40
2017-12-25T14:56:29.663Z,4.40
2017-12-25T14:58:57.251Z,4.40
2017-12-25T15:01:25.640Z,4.30
2017-12-25T15:03:53.999Z,4.30
2017-12-25T15:06:21.585Z,4.30
2017-12-25T15:08:49.950Z,4.20
2017-12-25T15:11:18.307Z,4.10
2017-12-25T15:13:45.915Z,4.20
2017-12-25T15:16:13.506Z,4.20
2017-12-25T15:18:41.104Z,4.10
2017-12-25T15:21:08.702Z,4.10
2017-12-25T15:23:36.284Z,4.10
2017-12-25T15:26:03.908Z,4.10
2017-12-25T15:28:32.264Z,4.00
2017-12-25T15:30:59.858Z,3.90
2017-12-25T15:33:27.458Z,3.90
2017-12-25T15:35:55.070Z,3.80
2017-12-25T15:38:23.470Z,3.70
2017-12-25T15:40:51.081Z,3.70
2017-12-25T15:43:18.684Z,3.60
2017-12-25T15:45:46.273Z,3.50
2017-12-25T15:48:13.857Z,3.50
2017-12-25T15:50:49.023Z,3.50
2017-12-25T15:53:17.421Z,3.20
2017-12-25T15:55:45.024Z,3.20
2017-12-25T15:58:12.623Z,3.10
2017-12-25T16:00:40.968Z,3.00
2017-12-25T16:03:08.584Z,3.00
2017-12-25T16:05:36.194Z,3.00
2017-12-25T16:08:03.791Z,3.00
2017-12-25T16:10:32.162Z,2.80
2017-12-25T16:13:00.513Z,2.80
2017-12-25T16:15:28.158Z,2.70
2017-12-25T16:17:55.759Z,2.70
2017-12-25T16:20:24.126Z,2.50
2017-12-25T16:22:51.714Z,2.50
2017-12-25T16:25:20.062Z,2.40
2017-12-25T16:27:47.677Z,2.40
2017-12-25T16:30:15.279Z,2.40
2017-12-25T16:32:42.901Z,2.30
2017-12-25T16:35:10.524Z,2.20
2017-12-25T16:37:42.634Z,2.10
2017-12-25T16:40:10.286Z,2.00
2017-12-25T16:42:37.884Z,2.00
2017-12-25T16:45:05.485Z,2.00
2017-12-25T16:47:33.855Z,1.90
2017-12-25T16:50:02.209Z,1.90
2017-12-25T16:52:29.845Z,1.90
2017-12-25T16:54:57.459Z,1.80
2017-12-25T16:57:25.816Z,1.70
2017-12-25T16:59:53.409Z,1.70
2017-12-25T17:02:21.774Z,1.70
2017-12-25T17:04:50.174Z,1.70
2017-12-25T17:07:18.512Z,1.70
2017-12-25T17:09:46.109Z,1.60
2017-12-25T17:12:14.489Z,1.60
2017-12-25T17:14:42.857Z,1.60
2017-12-25T17:17:11.251Z,1.60
2017-12-25T17:19:39.599Z,1.50
2017-12-25T17:22:07.193Z,1.50
2017-12-25T17:24:34.857Z,1.50
2017-12-25T17:27:02.459Z,1.50
2017-12-25T17:29:30.077Z,1.50
2017-12-25T17:31:58.444Z,1.40
2017-12-25T17:34:26.814Z,1.40
2017-12-25T17:36:54.437Z,1.40
2017-12-25T17:39:22.032Z,1.40
2017-12-25T17:41:49.657Z,1.40
2017-12-25T17:44:17.271Z,1.30
2017-12-25T17:46:45.637Z,1.30
2017-12-25T17:49:13.239Z,1.30
2017-12-25T17:51:40.881Z,1.30
2017-12-25T17:54:09.274Z,1.20
2017-12-25T17:56:36.903Z,1.20
2017-12-25T17:59:05.272Z,1.20
2017-12-25T18:01:32.864Z,1.20
2017-12-25T18:04:00.460Z,1.20
2017-12-25T18:06:28.112Z,1.20
2017-12-25T18:08:55.723Z,1.10
2017-12-25T18:11:23.343Z,1.10
2017-12-25T18:13:50.947Z,1.00
2017-12-25T18:16:19.323Z,1.00
2017-12-25T18:18:46.958Z,1.00
2017-12-25T18:21:14.589Z,1.00
2017-12-25T18:23:42.191Z,1.00
2017-12-25T18:26:09.796Z,0.90
2017-12-25T18:28:37.380Z,0.90
2017-12-25T18:31:04.997Z,0.90
2017-12-25T18:33:32.601Z,0.90
2017-12-25T18:36:00.181Z,0.90
2017-12-25T18:38:27.779Z,0.90
2017-12-25T18:40:55.372Z,0.80
2017-12-25T18:43:22.989Z,0.80
2017-12-25T18:45:50.675Z,0.80
2017-12-25T18:48:19.042Z,0.70
2017-12-25T18:50:46.628Z,0.70
2017-12-25T18:53:15.009Z,0.60
2017-12-25T18:55:42.662Z,0.50
2017-12-25T18:58:11.039Z,0.50
2017-12-25T19:00:39.451Z,0.40
2017-12-25T19:03:07.058Z,0.40
2017-12-25T19:05:34.695Z,0.40
2017-12-25T19:08:02.329Z,0.40
2017-12-25T19:10:29.936Z,0.30
2017-12-25T19:12:57.526Z,0.30
2017-12-25T19:15:25.882Z,0.20
2017-12-25T19:17:53.505Z,0.20
2017-12-25T19:20:21.133Z,0.20
2017-12-25T19:23:09.881Z,0.10
2017-12-25T19:25:38.264Z,0.10
2017-12-25T19:28:06.626Z,0.00
2017-12-25T19:30:34.212Z,0.00
2017-12-25T19:33:01.852Z,0.00
2017-12-25T19:35:29.436Z,0.00
2017-12-25T19:37:57.053Z,0.00
2017-12-25T19:40:24.662Z,0.10
2017-12-25T19:42:52.262Z,0.10
2017-12-25T19:45:20.616Z,0.20
2017-12-25T19:47:48.218Z,0.20
2017-12-25T19:50:15.828Z,0.20
2017-12-25T19:52:43.427Z,0.20
2017-12-25T19:55:11.036Z,0.20
2017-12-25T19:57:39.407Z,0.20
2017-12-25T20:00:07.789Z,0.20
2017-12-25T20:02:36.161Z,0.20
2017-12-25T20:05:04.527Z,0.20
2017-12-25T20:07:32.121Z,0.20
2017-12-25T20:09:59.718Z,0.30
2017-12-25T20:12:27.296Z,0.30
2017-12-25T20:14:54.923Z,0.30
2017-12-25T20:17:22.520Z,0.20
2017-12-25T20:19:50.123Z,0.20
2017-12-25T20:22:17.770Z,0.20
2017-12-25T20:24:46.120Z,0.20
2017-12-25T20:27:13.758Z,0.20
2017-12-25T20:29:41.366Z,0.20
2017-12-25T20:32:08.944Z,0.10
2017-12-25T20:34:37.305Z,0.10
2017-12-25T20:37:04.886Z,0.10
2017-12-25T20:39:33.271Z,0.00
2017-12-25T20:42:00.867Z,0.00
2017-12-25T20:44:28.476Z,0.00
2017-12-25T20:46:56.846Z,-0.10
2017-12-25T20:49:24.466Z,-0.10
2017-12-25T20:51:52.853Z,-0.10
2017-12-25T20:54:20.472Z,-0.10
2017-12-25T20:56:48.843Z,-0.10
2017-12-25T20:59:17.210Z,-0.20
2017-12-25T21:01:45.573Z,-0.20
2017-12-25T21:04:13.245Z,-0.20
2017-12-25T21:06:40.861Z,-0.20
2017-12-25T21:09:08.449Z,-0.20
2017-12-25T21:11:36.053Z,-0.20
2017-12-25T21:14:04.425Z,-0.30
2017-12-25T21:16:32.820Z,-0.30
2017-12-25T21:19:00.442Z,-0.30
2017-12-25T21:21:28.042Z,-0.30
2017-12-25T21:23:55.669Z,-0.30
2017-12-25T21:26:23.295Z,-0.30
2017-12-25T21:28:50.930Z,-0.20
2017-12-25T21:31:18.578Z,-0.20
2017-12-25T21:33:46.202Z,-0.20
2017-12-25T21:36:13.829Z,-0.20
2017-12-25T21:38:41.421Z,-0.20
2017-12-25T21:41:09.069Z,-0.20
2017-12-25T21:43:36.687Z,-0.20
2017-12-25T21:46:05.088Z,-0.20
2017-12-25T21:48:32.707Z,-0.20
2017-12-25T21:51:00.310Z,-0.20
2017-12-25T21:53:27.932Z,-0.20
2017-12-25T21:55:56.330Z,-0.20
2017-12-25T21:58:23.930Z,-0.20
2017-12-25T22:00:51.534Z,-0.10
2017-12-25T22:03:19.128Z,-0.10
2017-12-25T22:05:46.782Z,-0.10
2017-12-25T22:08:14.385Z,-0.20
2017-12-25T22:10:42.031Z,-0.20
2017-12-25T22:13:09.653Z,-0.20
2017-12-25T22:15:38.031Z,-0.20
2017-12-25T22:18:28.332Z,-0.30
2017-12-25T22:20:56.699Z,-0.20
2017-12-25T22:23:25.068Z,-0.20
2017-12-25T22:25:52.688Z,-0.20
2017-12-25T22:28:20.299Z,-0.10
2017-12-25T22:30:48.692Z,0.00
2017-12-25T22:33:17.033Z,0.10
2017-12-25T22:35:44.633Z,0.00
2017-12-25T22:38:12.980Z,0.00
2017-12-25T22:40:40.573Z,0.10
2017-12-25T22:43:08.941Z,0.10
2017-12-25T22:45:37.309Z,0.00
2017-12-25T22:48:05.680Z,0.00
2017-12-25T22:50:33.260Z,0.00
2017-12-25T22:53:01.620Z,-0.10
2017-12-25T22:55:29.233Z,-0.10
2017-12-25T22:57:56.828Z,-0.10
2017-12-25T23:00:24.424Z,-0.10
2017-12-25T23:02:52.774Z,0.00
2017-12-25T23:05:20.374Z,-0.10
2017-12-25T23:07:48.781Z,0.20
2017-12-25T23:10:16.378Z,0.20
2017-12-25T23:12:43.990Z,0.30
2017-12-25T23:15:11.587Z,0.30
2017-12-25T23:17:39.169Z,0.40
2017-12-25T23:20:06.784Z,0.30
2017-12-25T23:22:34.433Z,0.30
2017-12-25T23:25:02.023Z,0.30
2017-12-25T23:27:30.423Z,0.20
2017-12-25T23:29:58.018Z,0.20
2017-12-25T23:32:26.406Z,0.00
2017-12-25T23:34:53.992Z,0.10
2017-12-25T23:37:21.588Z,0.00
2017-12-25T23:39:49.182Z,-0.10
2017-12-25T23:42:17.569Z,-0.20
2017-12-25T23:44:45.216Z,-0.20
2017-12-25T23:47:13.596Z,-0.20
2017-12-25T23:49:41.216Z,-0.30
2017-12-25T23:52:08.814Z,-0.20
2017-12-25T23:54:37.175Z,-0.20
2017-12-25T23:57:04.816Z,-0.20
2017-12-25T23:59:32.439Z,-0.20
